Toledo Express Airport
KTOL : now visible

Airfield :











YOU CAN JOIN US ON...

 
LOGIN :

Register | Disclaimer

   EN    FR    IT 

 









Legend :    VFR   Marginal VFR   IFR   Intensive IFR   Very Intensive IFR
Visi :
Ceiling :
>= 8 km
>= 3000ft
5 to 8 km
1000 to 3000 ft
1500m to 5 km
500 to 1000 ft
800 to 1500m
200 to 500 ft
< 800m
< 200 ft
Symbols :   Thunderstorms  Fog  Heavy snow  Heavy precipitations  Wind > 20 kt






- Airport Elevation : 683 ft
- IATA code : TOL


KTOL - Toledo Express

CURRENT METAR :
  • 011752Z 36008KT 10SM FEW023 SCT037 OVC065 09/03 A3002 RMK AO2 SLP170 T00940028 10094 20061 50000 $

EXPIRED METARs :
  • 011652Z 01005KT 10SM FEW021 BKN036 OVC070 09/03 A3003 RMK AO2 SLP172 T00890028 $
  • 011644Z 36007KT 10SM FEW021 SCT027 OVC036 09/03 A3003 RMK AO2 T00890028 $
  • 011552Z 36006KT 10SM BKN015 BKN024 OVC028 08/03 A3003 RMK AO2 SLP173 T00780033 $

TAF KTOL
Valid from the 01 at 18:00 until the 02 at 18:00 UTC


011740Z 0118/0218 36008KT P6SM VCSH BKN035
TEMPO 0118/0121 BKN030
FM012300 34006KT P6SM BKN050
FM020900 34004KT P6SM SCT050



MET'MAP, your aeronautical weather chart ! - Copyright ORBIFLY December 2007 - Disclaimer

ORBIFLY MET'MAP TEAM :

Programming & Development : Alexandra Zaïnal
Concept & original design : Baudouin d'Aumeries
Assistance for programming : Marc-Olivier Méhu
Technical & hardware support : Manuel Goepfert

Contact : metmap@orbifly.com




SOURCES & CREDITS :

   NOAA       Earth
Advisory